Chicago, IL

5:50 PM CDT on August 24, 2016 (GMT -0500)
West Loop | | Change Station

Elev 571 ft 41.88 °N, 87.64 °W | Updated 30 seconds ago

Mostly Cloudy
Mostly Cloudy
85.1 °F
Feels Like 87 °F
N
11.4
Wind Variable Wind from West

Today
High -- | Low -- °F
--% Chance of Precip.
Yesterday
High -- | Low -- °F
Precip. -- in
Pressure 29.89 in
Visibility 10.0 miles
Clouds Few 2800 ft
Scattered Clouds 3300 ft
Mostly Cloudy 25000 ft
Heat Index 87 °F
Dew Point 66 °F
Humidity 53%
Rainfall 0.51 in
Snow Depth Not available.
6:08 AM 7:36 PM
Waning Gibbous, 52% visible
METAR KMDW 242153Z 24013KT 10SM FEW028 SCT033 BKN250 29/22 A2992 RMK AO2 SLP121 T02890217
Pressure 29.89 in
Visibility 10.0 miles
Clouds Few 2800 ft
Scattered Clouds 3300 ft
Mostly Cloudy 25000 ft
Heat Index 87 °F
Dew Point 66 °F
Humidity 53%
Rainfall 0.51 in
Snow Depth Not available.
6:08 AM 7:36 PM
Waning Gibbous, 52% visible
METAR KMDW 242153Z 24013KT 10SM FEW028 SCT033 BKN250 29/22 A2992 RMK AO2 SLP121 T02890217

10-Day Weather Forecast

Almanac

Astronomy

Aug. 24, 2016 Rise Set
Actual Time
Civil Twilight
Nautical Twilight
Astronomical Twilight
Moon
Length of Visible Light
Length of Day
Tomorrow will be .
, % of the Moon is Illuminated

Today's Extremes

State Highs State Lows

Community

WunderPhotos

Upload Photos

1,934,728 photos uploaded!

WunderBlog® & News

Nearby

Air Quality

  Air Quality AQ Index Pollutant
Not available.

Snow Depth

Station Depth Elevation

Earthquake Activity

City Distance Mag. Time & Date
Minimum magnitude displayed is 2.5.

Coastal Water Temperatures

Place Temperature

Stations

Nearby Weather Stations

Station Location Temp. Windchill Dew Point Humidity Wind Precip. Elev Updated Type
                   

Watches & Warnings

There are currently no watches in effect.